Time;durP1;ratioP1;P1;durP2;ratioP2;P2;SDS_P1;SDS_P2;PMS_P1;PMS_P2;Temp;Humidity;BMP_temperature;BMP_pressure;BME280_temperature;BME280_humidity;BME280_pressure;Samples;Min_cycle;Max_cycle;Signal;HPM_P1;HPM_P2
2024/02/26 00:00:38;;;;;;;7.63;3.70;;;;;;;;;;5050248;28;20063;-58
2024/02/26 00:03:04;;;;;;;7.33;3.10;;;;;;;;;;5053825;28;20279;-59
2024/02/26 00:05:31;;;;;;;7.65;3.15;;;;;;;;;;5052054;28;20088;-60
2024/02/26 00:07:56;;;;;;;10.10;3.47;;;;;;;;;;5054449;28;20029;-58
2024/02/26 00:10:22;;;;;;;7.10;3.67;;;;;;;;;;5053765;28;20048;-56
2024/02/26 00:12:47;;;;;;;6.00;4.10;;;;;;;;;;5049983;28;20320;-58
2024/02/26 00:15:12;;;;;;;10.23;4.20;;;;;;;;;;5051295;28;20053;-59
2024/02/26 00:17:38;;;;;;;7.55;4.45;;;;;;;;;;5054095;28;20037;-58
2024/02/26 00:20:08;;;;;;;7.97;4.70;;;;;;;;;;5053094;28;20133;-58
2024/02/26 00:22:34;;;;;;;7.13;4.23;;;;;;;;;;5050058;28;20018;-58
2024/02/26 00:24:59;;;;;;;10.10;3.97;;;;;;;;;;5051063;28;20289;-58
2024/02/26 00:27:25;;;;;;;8.13;4.57;;;;;;;;;;5049468;28;20033;-57
2024/02/26 00:29:50;;;;;;;5.90;3.80;;;;;;;;;;5051987;28;20043;-58
2024/02/26 00:32:16;;;;;;;10.17;4.03;;;;;;;;;;5050648;28;20270;-58
2024/02/26 00:34:41;;;;;;;7.55;3.65;;;;;;;;;;5050007;28;20057;-56
2024/02/26 00:37:07;;;;;;;9.03;3.90;;;;;;;;;;5050196;28;20034;-56
2024/02/26 00:39:32;;;;;;;7.13;4.38;;;;;;;;;;5049842;28;20277;-55
2024/02/26 00:41:58;;;;;;;6.20;3.63;;;;;;;;;;5051389;28;20025;-58
2024/02/26 00:44:23;;;;;;;12.63;3.97;;;;;;;;;;5050341;28;20029;-58
2024/02/26 00:46:49;;;;;;;11.57;3.80;;;;;;;;;;5049702;28;20033;-56
2024/02/26 00:49:14;;;;;;;4.60;3.23;;;;;;;;;;5050994;28;20255;-58
2024/02/26 00:51:40;;;;;;;7.72;4.30;;;;;;;;;;5050204;28;20114;-58
2024/02/26 00:54:05;;;;;;;10.23;3.00;;;;;;;;;;5050511;28;20057;-57
2024/02/26 00:56:31;;;;;;;5.90;3.33;;;;;;;;;;5050458;28;20281;-59
2024/02/26 00:58:56;;;;;;;7.68;3.72;;;;;;;;;;5049592;28;20033;-57
2024/02/26 01:01:22;;;;;;;6.73;3.60;;;;;;;;;;5053043;28;20041;-56
2024/02/26 01:03:47;;;;;;;9.67;4.03;;;;;;;;;;5054614;28;20274;-56
2024/02/26 01:06:13;;;;;;;6.72;3.75;;;;;;;;;;5054196;28;20021;-58
2024/02/26 01:08:39;;;;;;;6.80;3.80;;;;;;;;;;5054105;28;20042;-59
2024/02/26 01:11:05;;;;;;;6.35;3.40;;;;;;;;;;5052227;28;20266;-57
2024/02/26 01:13:30;;;;;;;5.03;3.60;;;;;;;;;;5054273;28;20052;-58
2024/02/26 01:15:56;;;;;;;9.35;3.65;;;;;;;;;;5054160;28;20044;-57
2024/02/26 01:18:22;;;;;;;7.90;4.20;;;;;;;;;;5053754;28;20030;-55
2024/02/26 01:20:47;;;;;;;7.10;4.13;;;;;;;;;;5053441;28;20259;-58
2024/02/26 01:23:13;;;;;;;7.13;3.70;;;;;;;;;;5056829;28;20036;-58
2024/02/26 01:25:39;;;;;;;5.90;2.73;;;;;;;;;;5056974;28;20029;-58
2024/02/26 01:28:05;;;;;;;6.82;4.30;;;;;;;;;;5058564;28;20263;-58
2024/02/26 01:30:30;;;;;;;7.60;3.40;;;;;;;;;;5056198;28;20097;-56
2024/02/26 01:32:56;;;;;;;4.00;3.05;;;;;;;;;;5056065;28;20064;-58
2024/02/26 01:35:21;;;;;;;6.17;4.00;;;;;;;;;;5054432;28;20094;-57
2024/02/26 01:37:47;;;;;;;5.97;3.45;;;;;;;;;;5055275;28;20342;-57
2024/02/26 01:40:12;;;;;;;5.97;3.60;;;;;;;;;;5057948;28;20048;-58
2024/02/26 01:42:38;;;;;;;4.95;3.58;;;;;;;;;;5056836;28;20033;-57
2024/02/26 01:45:04;;;;;;;5.15;3.95;;;;;;;;;;5057239;28;20041;-58
2024/02/26 01:47:29;;;;;;;5.53;3.58;;;;;;;;;;5053920;28;20025;-57
2024/02/26 01:49:55;;;;;;;7.22;4.35;;;;;;;;;;5055981;28;21049;-58
2024/02/26 01:52:22;;;;;;;9.30;4.68;;;;;;;;;;5055319;28;20048;-57
2024/02/26 01:54:48;;;;;;;11.70;4.85;;;;;;;;;;5053167;28;20056;-57
2024/02/26 01:57:14;;;;;;;6.63;4.30;;;;;;;;;;5059716;28;20076;-58
2024/02/26 01:59:40;;;;;;;8.13;4.43;;;;;;;;;;5054188;28;20048;-58
2024/02/26 02:02:06;;;;;;;5.00;3.42;;;;;;;;;;5053502;28;20318;-56
2024/02/26 02:04:32;;;;;;;5.67;3.57;;;;;;;;;;5052138;28;20030;-56
2024/02/26 02:06:57;;;;;;;7.30;3.77;;;;;;;;;;5053463;28;20290;-55
2024/02/26 02:09:24;;;;;;;5.18;3.53;;;;;;;;;;5052857;28;20259;-59
2024/02/26 02:11:50;;;;;;;8.98;4.00;;;;;;;;;;5051282;28;20037;-58
2024/02/26 02:14:15;;;;;;;9.17;3.50;;;;;;;;;;5052462;28;20034;-60
2024/02/26 02:16:41;;;;;;;7.75;3.85;;;;;;;;;;5053294;28;20029;-57
2024/02/26 02:19:06;;;;;;;8.20;3.73;;;;;;;;;;5053567;28;20032;-58
2024/02/26 02:21:32;;;;;;;4.33;2.83;;;;;;;;;;5053185;28;20032;-58
2024/02/26 02:23:57;;;;;;;8.60;3.60;;;;;;;;;;5052819;28;20243;-58
2024/02/26 02:26:23;;;;;;;5.17;3.30;;;;;;;;;;5050132;28;20294;-58
2024/02/26 02:28:48;;;;;;;6.37;3.80;;;;;;;;;;5050119;28;20033;-59
2024/02/26 02:31:14;;;;;;;6.88;3.83;;;;;;;;;;5050871;28;20030;-59
2024/02/26 02:33:40;;;;;;;6.47;3.67;;;;;;;;;;5050928;28;20042;-55
2024/02/26 02:36:09;;;;;;;6.80;4.03;;;;;;;;;;5055967;28;20085;-57
2024/02/26 02:38:36;;;;;;;9.80;3.77;;;;;;;;;;5050520;28;20266;-57
2024/02/26 02:41:02;;;;;;;4.65;2.83;;;;;;;;;;5053100;28;20262;-58
2024/02/26 02:43:28;;;;;;;7.37;3.73;;;;;;;;;;5051177;28;20026;-59
2024/02/26 02:45:53;;;;;;;7.30;4.20;;;;;;;;;;5051968;28;20310;-59
2024/02/26 02:48:19;;;;;;;6.20;4.03;;;;;;;;;;5051629;28;20045;-58
2024/02/26 02:50:44;;;;;;;7.33;4.57;;;;;;;;;;5051814;28;20277;-58
2024/02/26 02:53:10;;;;;;;5.57;3.80;;;;;;;;;;5052695;28;20076;-58
2024/02/26 02:55:35;;;;;;;7.47;4.70;;;;;;;;;;5050996;28;20026;-59
2024/02/26 02:58:00;;;;;;;7.57;3.80;;;;;;;;;;5052245;28;20033;-58
2024/02/26 03:00:26;;;;;;;8.93;4.05;;;;;;;;;;5050059;28;20056;-56
2024/02/26 03:02:52;;;;;;;6.63;3.80;;;;;;;;;;5052434;28;20034;-56
2024/02/26 03:05:17;;;;;;;6.40;3.67;;;;;;;;;;5050831;28;20320;-57
2024/02/26 03:07:43;;;;;;;8.15;4.00;;;;;;;;;;5051593;28;20056;-58
2024/02/26 03:10:08;;;;;;;6.57;3.93;;;;;;;;;;5051151;28;20057;-58
2024/02/26 03:12:34;;;;;;;8.03;4.17;;;;;;;;;;5050554;28;20262;-59
2024/02/26 03:15:02;;;;;;;7.20;4.40;;;;;;;;;;5049980;28;20354;-58
2024/02/26 03:17:31;;;;;;;8.23;4.47;;;;;;;;;;5052534;28;20085;-55
2024/02/26 03:19:57;;;;;;;9.00;4.90;;;;;;;;;;5051025;28;20243;-59
2024/02/26 03:22:22;;;;;;;6.97;4.50;;;;;;;;;;5050540;28;20270;-57
2024/02/26 03:24:48;;;;;;;9.10;4.20;;;;;;;;;;5051033;28;20269;-59
2024/02/26 03:27:14;;;;;;;7.07;4.18;;;;;;;;;;5048290;28;20033;-59
2024/02/26 03:29:40;;;;;;;7.25;4.13;;;;;;;;;;5050937;28;20037;-57
2024/02/26 03:32:05;;;;;;;6.87;4.73;;;;;;;;;;5051381;28;20029;-58
2024/02/26 03:34:31;;;;;;;5.73;4.27;;;;;;;;;;5051460;28;20049;-59
2024/02/26 03:36:57;;;;;;;8.32;3.63;;;;;;;;;;5051466;28;20072;-58
2024/02/26 03:39:22;;;;;;;6.57;4.32;;;;;;;;;;5052927;28;20033;-55
2024/02/26 03:41:48;;;;;;;7.50;4.57;;;;;;;;;;5052273;28;20026;-57
2024/02/26 03:44:13;;;;;;;6.57;4.20;;;;;;;;;;5051833;28;20333;-57
2024/02/26 03:46:39;;;;;;;7.13;4.05;;;;;;;;;;5051553;28;20068;-58
2024/02/26 03:49:04;;;;;;;11.83;4.33;;;;;;;;;;5052969;28;20033;-58
2024/02/26 03:51:31;;;;;;;7.80;4.20;;;;;;;;;;5050890;28;20067;-59
2024/02/26 03:53:58;;;;;;;7.85;4.18;;;;;;;;;;5053456;28;20033;-57
2024/02/26 03:56:24;;;;;;;6.20;3.63;;;;;;;;;;5051176;28;20026;-58
2024/02/26 03:58:49;;;;;;;7.75;4.25;;;;;;;;;;5050408;28;20021;-59
2024/02/26 04:01:15;;;;;;;6.47;4.10;;;;;;;;;;5050889;28;20028;-59
2024/02/26 04:03:41;;;;;;;8.10;3.72;;;;;;;;;;5051867;28;20102;-56
2024/02/26 04:06:10;;;;;;;5.97;3.70;;;;;;;;;;5051346;28;20033;-57
2024/02/26 04:08:36;;;;;;;6.87;4.10;;;;;;;;;;5066588;28;20025;-57
2024/02/26 04:11:06;;;;;;;8.15;4.18;;;;;;;;;;5050406;28;20254;-59
2024/02/26 04:13:33;;;;;;;6.18;3.92;;;;;;;;;;5049454;28;20065;-58
2024/02/26 04:15:58;;;;;;;9.93;4.10;;;;;;;;;;5048493;28;20056;-58
2024/02/26 04:18:24;;;;;;;8.25;4.60;;;;;;;;;;5052694;28;20021;-57
2024/02/26 04:20:51;;;;;;;6.43;4.30;;;;;;;;;;5050023;28;20046;-58
2024/02/26 04:23:17;;;;;;;8.90;4.65;;;;;;;;;;5049605;28;20053;-58
2024/02/26 04:25:42;;;;;;;9.57;5.33;;;;;;;;;;5050354;28;20036;-58
2024/02/26 04:28:08;;;;;;;10.18;5.03;;;;;;;;;;5052212;28;20030;-59
2024/02/26 04:30:33;;;;;;;7.50;4.43;;;;;;;;;;5051045;28;20041;-57
2024/02/26 04:32:58;;;;;;;8.70;5.20;;;;;;;;;;5049691;28;20038;-57
2024/02/26 04:35:24;;;;;;;8.77;5.17;;;;;;;;;;5054641;28;20028;-55
2024/02/26 04:37:50;;;;;;;8.38;4.40;;;;;;;;;;5055024;28;20030;-58
2024/02/26 04:40:15;;;;;;;7.73;4.73;;;;;;;;;;5054848;28;20052;-57
2024/02/26 04:42:41;;;;;;;10.88;5.00;;;;;;;;;;5056047;28;20052;-58
2024/02/26 04:45:08;;;;;;;7.45;4.35;;;;;;;;;;5055859;28;20034;-58
2024/02/26 04:47:33;;;;;;;8.35;5.00;;;;;;;;;;5056171;28;20064;-60
2024/02/26 04:49:58;;;;;;;8.73;5.23;;;;;;;;;;5053938;28;20037;-59
2024/02/26 04:52:25;;;;;;;9.27;5.53;;;;;;;;;;5056844;28;20036;-58
2024/02/26 04:54:51;;;;;;;10.40;5.07;;;;;;;;;;5054442;28;20033;-61
2024/02/26 04:57:18;;;;;;;8.38;4.82;;;;;;;;;;5053804;28;20032;-57
2024/02/26 04:59:45;;;;;;;6.72;4.45;;;;;;;;;;5054298;28;20034;-59
2024/02/26 05:02:11;;;;;;;6.25;3.83;;;;;;;;;;5055477;28;20032;-60
2024/02/26 05:04:36;;;;;;;9.73;5.60;;;;;;;;;;5052027;28;20029;-59
2024/02/26 05:07:02;;;;;;;10.70;5.75;;;;;;;;;;5053965;28;20262;-60
2024/02/26 05:09:27;;;;;;;7.47;4.63;;;;;;;;;;5053926;28;20048;-58
2024/02/26 05:11:53;;;;;;;9.37;4.60;;;;;;;;;;5053786;28;20053;-60
2024/02/26 05:14:18;;;;;;;9.25;5.13;;;;;;;;;;5052335;28;20037;-58
2024/02/26 05:16:44;;;;;;;11.60;6.70;;;;;;;;;;5050652;28;20064;-59
2024/02/26 05:19:09;;;;;;;10.13;5.40;;;;;;;;;;5054642;28;20259;-57
2024/02/26 05:21:35;;;;;;;10.27;5.73;;;;;;;;;;5054435;28;20258;-59
2024/02/26 05:24:00;;;;;;;9.30;5.50;;;;;;;;;;5054869;28;20093;-58
2024/02/26 05:26:26;;;;;;;6.53;3.95;;;;;;;;;;5051303;28;20397;-58
2024/02/26 05:28:52;;;;;;;9.82;5.32;;;;;;;;;;5053993;28;20096;-58
2024/02/26 05:31:18;;;;;;;10.00;4.95;;;;;;;;;;5055228;28;20034;-58
2024/02/26 05:33:44;;;;;;;8.35;4.60;;;;;;;;;;5056111;28;20037;-58
2024/02/26 05:36:09;;;;;;;11.00;4.87;;;;;;;;;;5051166;28;20041;-56
2024/02/26 05:38:35;;;;;;;10.50;5.22;;;;;;;;;;5052658;28;20048;-60
2024/02/26 05:41:00;;;;;;;9.45;5.30;;;;;;;;;;5053872;28;20038;-56
2024/02/26 05:43:27;;;;;;;5.47;3.55;;;;;;;;;;5052997;28;20029;-57
2024/02/26 05:45:53;;;;;;;8.00;4.25;;;;;;;;;;5053297;28;20045;-58
2024/02/26 05:48:19;;;;;;;12.40;6.03;;;;;;;;;;5049843;28;20056;-58
2024/02/26 05:50:47;;;;;;;13.68;5.38;;;;;;;;;;5051317;28;20109;-58
2024/02/26 05:53:13;;;;;;;9.52;6.10;;;;;;;;;;5051741;28;20061;-56
2024/02/26 05:55:39;;;;;;;9.80;4.70;;;;;;;;;;5052390;28;20033;-59
2024/02/26 05:58:04;;;;;;;10.00;6.18;;;;;;;;;;5053322;28;20270;-59
2024/02/26 06:00:29;;;;;;;9.90;5.47;;;;;;;;;;5052525;28;20056;-57
2024/02/26 06:02:55;;;;;;;13.82;6.30;;;;;;;;;;5051868;28;20029;-57
2024/02/26 06:05:20;;;;;;;9.33;5.17;;;;;;;;;;5052797;28;20056;-58
2024/02/26 06:07:46;;;;;;;8.73;4.88;;;;;;;;;;5053130;28;20033;-60
2024/02/26 06:10:13;;;;;;;11.13;6.00;;;;;;;;;;5053729;28;20056;-57
2024/02/26 06:12:40;;;;;;;11.07;5.63;;;;;;;;;;5052205;28;20021;-60
2024/02/26 06:15:05;;;;;;;10.15;5.63;;;;;;;;;;5051072;28;20049;-60
2024/02/26 06:17:31;;;;;;;8.93;5.45;;;;;;;;;;5054262;28;20084;-56
2024/02/26 06:19:56;;;;;;;8.40;4.22;;;;;;;;;;5050015;28;20096;-56
2024/02/26 06:22:22;;;;;;;10.90;6.13;;;;;;;;;;5051569;28;20045;-59
2024/02/26 06:24:47;;;;;;;10.07;5.53;;;;;;;;;;5051817;28;20286;-59
2024/02/26 06:27:13;;;;;;;8.15;3.90;;;;;;;;;;5052057;28;20115;-58
2024/02/26 06:29:39;;;;;;;6.97;4.40;;;;;;;;;;5051070;28;20037;-59
2024/02/26 06:32:05;;;;;;;11.23;5.20;;;;;;;;;;5049253;28;20029;-58
2024/02/26 06:34:31;;;;;;;9.93;5.43;;;;;;;;;;5052867;28;20041;-62
2024/02/26 06:36:56;;;;;;;8.40;4.90;;;;;;;;;;5052036;28;20304;-59
2024/02/26 06:39:22;;;;;;;10.33;5.83;;;;;;;;;;5052885;28;20033;-59
2024/02/26 06:41:47;;;;;;;8.88;5.20;;;;;;;;;;5049147;28;20029;-60
2024/02/26 06:44:13;;;;;;;13.73;5.43;;;;;;;;;;5048040;28;20101;-59
2024/02/26 06:46:39;;;;;;;9.10;5.07;;;;;;;;;;5050687;28;20033;-60
2024/02/26 06:49:04;;;;;;;9.90;5.65;;;;;;;;;;5052383;28;20037;-59
2024/02/26 06:51:31;;;;;;;;;;;;;;;;;;5052118;28;20045;-58
2024/02/26 06:53:56;;;;;;;8.83;5.43;;;;;;;;;;5051123;28;19984;-56
2024/02/26 06:56:22;;;;;;;9.70;5.60;;;;;;;;;;5050801;28;20018;-59
2024/02/26 06:58:47;;;;;;;10.00;4.53;;;;;;;;;;5051561;28;20274;-59
2024/02/26 07:01:13;;;;;;;7.78;4.70;;;;;;;;;;5051195;28;20060;-59
2024/02/26 07:03:40;;;;;;;9.00;4.60;;;;;;;;;;5051404;28;20033;-57
2024/02/26 07:06:05;;;;;;;8.65;4.97;;;;;;;;;;5051550;28;20026;-56
2024/02/26 07:08:31;;;;;;;9.95;5.78;;;;;;;;;;5051944;28;20072;-59
2024/02/26 07:10:56;;;;;;;11.10;6.37;;;;;;;;;;5052413;28;20081;-60
2024/02/26 07:13:22;;;;;;;12.87;5.87;;;;;;;;;;5053318;28;20025;-57
2024/02/26 07:15:47;;;;;;;10.23;5.57;;;;;;;;;;5050541;28;20090;-56
2024/02/26 07:18:13;;;;;;;9.77;5.20;;;;;;;;;;5050729;28;20052;-57
2024/02/26 07:20:38;;;;;;;14.60;7.75;;;;;;;;;;5050115;28;20054;-60
2024/02/26 07:23:04;;;;;;;11.27;6.43;;;;;;;;;;5049917;28;20097;-60
2024/02/26 07:25:29;;;;;;;12.63;6.70;;;;;;;;;;5052688;28;20036;-58
2024/02/26 07:27:55;;;;;;;13.80;7.05;;;;;;;;;;5051179;28;20047;-59
2024/02/26 07:30:20;;;;;;;10.80;5.93;;;;;;;;;;5054743;28;20022;-54
2024/02/26 07:32:46;;;;;;;12.57;6.40;;;;;;;;;;5053863;28;20080;-59
2024/02/26 07:35:11;;;;;;;9.23;5.67;;;;;;;;;;5051759;28;20089;-59
2024/02/26 07:37:37;;;;;;;17.27;9.80;;;;;;;;;;5052493;28;20021;-57
2024/02/26 07:40:03;;;;;;;17.00;8.82;;;;;;;;;;5053500;28;20116;-58
2024/02/26 07:42:28;;;;;;;14.52;7.90;;;;;;;;;;5051354;28;20052;-58
2024/02/26 07:44:54;;;;;;;24.00;8.90;;;;;;;;;;5049690;28;20052;-58
2024/02/26 07:47:21;;;;;;;18.83;9.17;;;;;;;;;;5048602;28;20050;-58
2024/02/26 07:49:46;;;;;;;14.50;7.80;;;;;;;;;;5050494;28;20037;-60
2024/02/26 07:52:11;;;;;;;15.80;7.50;;;;;;;;;;5048686;28;20108;-59
2024/02/26 07:54:37;;;;;;;15.00;8.67;;;;;;;;;;5049483;28;20025;-57
2024/02/26 07:57:06;;;;;;;16.80;8.20;;;;;;;;;;5051090;28;20278;-58
2024/02/26 07:59:31;;;;;;;18.25;8.43;;;;;;;;;;5048414;28;20022;-57
2024/02/26 08:01:57;;;;;;;17.42;9.13;;;;;;;;;;5051253;28;20034;-59
2024/02/26 08:04:22;;;;;;;14.33;7.03;;;;;;;;;;5049798;28;20030;-58
2024/02/26 08:06:47;;;;;;;16.70;8.80;;;;;;;;;;5049874;28;20041;-57
2024/02/26 08:09:13;;;;;;;21.77;10.35;;;;;;;;;;5049571;28;20044;-59
2024/02/26 08:11:38;;;;;;;16.27;9.20;;;;;;;;;;5050595;28;20040;-59
2024/02/26 08:14:04;;;;;;;18.93;10.20;;;;;;;;;;5049463;28;20037;-59
2024/02/26 08:16:29;;;;;;;23.17;9.85;;;;;;;;;;5048716;28;20026;-57
2024/02/26 08:18:55;;;;;;;23.90;11.70;;;;;;;;;;5050485;28;20055;-59
2024/02/26 08:21:20;;;;;;;23.37;10.63;;;;;;;;;;5048526;28;20210;-58
2024/02/26 08:23:45;;;;;;;16.83;8.63;;;;;;;;;;5053885;28;20041;-61
2024/02/26 08:26:11;;;;;;;20.10;10.67;;;;;;;;;;5056126;28;20133;-60
2024/02/26 08:28:37;;;;;;;20.98;10.40;;;;;;;;;;5055853;28;20037;-59
2024/02/26 08:31:03;;;;;;;17.27;8.00;;;;;;;;;;5052962;28;20093;-57
2024/02/26 08:33:28;;;;;;;23.83;10.73;;;;;;;;;;5050221;28;20041;-57
2024/02/26 08:35:54;;;;;;;25.80;11.37;;;;;;;;;;5050892;28;20021;-57
2024/02/26 08:38:19;;;;;;;18.57;8.23;;;;;;;;;;5052011;28;20281;-58
2024/02/26 08:40:45;;;;;;;24.50;10.07;;;;;;;;;;5053449;28;20033;-58
2024/02/26 08:43:10;;;;;;;27.00;10.47;;;;;;;;;;5050981;28;20044;-60
2024/02/26 08:45:36;;;;;;;27.35;12.23;;;;;;;;;;5049575;28;20037;-60
2024/02/26 08:48:01;;;;;;;27.83;13.10;;;;;;;;;;5049639;28;20079;-61
2024/02/26 08:50:26;;;;;;;25.40;10.47;;;;;;;;;;5050437;28;20052;-60
2024/02/26 08:52:53;;;;;;;27.10;11.23;;;;;;;;;;5049110;28;20026;-59
2024/02/26 08:55:18;;;;;;;23.05;9.50;;;;;;;;;;5049351;28;20112;-60
2024/02/26 08:57:44;;;;;;;30.10;12.57;;;;;;;;;;5049921;28;20026;-58
2024/02/26 09:00:09;;;;;;;26.13;11.93;;;;;;;;;;5054376;28;20025;-59
2024/02/26 09:02:35;;;;;;;32.85;14.90;;;;;;;;;;5050691;28;20025;-61
2024/02/26 09:05:00;;;;;;;28.13;12.73;;;;;;;;;;5049551;28;20065;-58
2024/02/26 09:07:26;;;;;;;33.15;14.10;;;;;;;;;;5052528;28;20052;-58
2024/02/26 09:09:51;;;;;;;30.17;14.10;;;;;;;;;;5051959;28;20048;-59
2024/02/26 09:12:17;;;;;;;32.58;11.95;;;;;;;;;;5047799;28;20025;-56
2024/02/26 09:14:42;;;;;;;21.27;9.97;;;;;;;;;;5049039;28;20041;-60
2024/02/26 09:17:08;;;;;;;23.40;10.33;;;;;;;;;;5049231;28;20274;-58
2024/02/26 09:19:33;;;;;;;29.05;12.20;;;;;;;;;;5047748;28;20542;-57
2024/02/26 09:21:59;;;;;;;28.77;12.77;;;;;;;;;;5052735;28;20037;-57
2024/02/26 09:24:25;;;;;;;30.92;13.48;;;;;;;;;;5053506;28;20030;-58
2024/02/26 09:26:50;;;;;;;31.87;12.53;;;;;;;;;;5052307;28;20037;-58
2024/02/26 09:29:15;;;;;;;27.33;12.03;;;;;;;;;;5054587;28;20293;-59
2024/02/26 09:31:41;;;;;;;25.10;9.88;;;;;;;;;;5056352;28;20629;-60
2024/02/26 09:34:07;;;;;;;33.73;14.27;;;;;;;;;;5055616;28;20044;-59
2024/02/26 09:36:33;;;;;;;32.45;13.35;;;;;;;;;;5054279;28;20322;-56
2024/02/26 09:38:59;;;;;;;27.98;12.32;;;;;;;;;;5055121;28;20052;-57
2024/02/26 09:41:27;;;;;;;29.55;11.05;;;;;;;;;;5056088;28;20029;-56
2024/02/26 09:43:55;;;;;;;17.75;8.85;;;;;;;;;;5054821;28;20185;-54
2024/02/26 09:46:21;;;;;;;23.50;11.00;;;;;;;;;;5050516;28;20059;-58
2024/02/26 09:48:47;;;;;;;23.93;11.03;;;;;;;;;;5054107;28;20048;-58
2024/02/26 09:51:14;;;;;;;24.17;11.45;;;;;;;;;;5050840;28;20033;-58
2024/02/26 09:53:42;;;;;;;24.33;9.88;;;;;;;;;;5053195;28;20048;-58
2024/02/26 09:56:09;;;;;;;22.73;11.30;;;;;;;;;;5051890;28;20029;-59
2024/02/26 09:58:36;;;;;;;23.60;11.65;;;;;;;;;;5052060;28;20025;-59
2024/02/26 10:01:02;;;;;;;22.25;10.50;;;;;;;;;;5051132;28;20025;-59
2024/02/26 10:03:29;;;;;;;22.58;11.15;;;;;;;;;;5054424;28;20070;-58
2024/02/26 10:05:55;;;;;;;24.30;10.73;;;;;;;;;;5052114;28;20029;-58
2024/02/26 10:08:22;;;;;;;18.30;8.37;;;;;;;;;;5052754;28;20063;-57
2024/02/26 10:10:47;;;;;;;27.90;12.00;;;;;;;;;;5051634;28;20032;-59
2024/02/26 10:13:13;;;;;;;25.85;10.63;;;;;;;;;;5051931;28;20037;-57
2024/02/26 10:15:39;;;;;;;23.42;10.82;;;;;;;;;;5050801;28;20040;-57
2024/02/26 10:18:05;;;;;;;21.37;10.27;;;;;;;;;;5051435;28;20035;-58
2024/02/26 10:20:31;;;;;;;22.73;10.77;;;;;;;;;;5052831;28;20251;-60
2024/02/26 10:22:57;;;;;;;22.42;10.40;;;;;;;;;;5052568;28;20055;-59
2024/02/26 10:25:22;;;;;;;16.42;7.53;;;;;;;;;;5053064;28;20116;-59
2024/02/26 10:27:48;;;;;;;21.10;9.73;;;;;;;;;;5052949;28;20029;-59
2024/02/26 10:30:18;;;;;;;20.27;10.43;;;;;;;;;;5050958;28;20270;-60
2024/02/26 10:32:45;;;;;;;15.23;8.30;;;;;;;;;;5051819;28;20048;-57
2024/02/26 10:35:12;;;;;;;21.52;11.70;;;;;;;;;;5051285;28;20029;-58
2024/02/26 10:37:37;;;;;;;22.17;9.40;;;;;;;;;;5052149;28;20037;-57
2024/02/26 10:40:03;;;;;;;22.43;11.13;;;;;;;;;;5050324;28;20297;-58
2024/02/26 10:42:30;;;;;;;15.55;8.35;;;;;;;;;;5053180;28;20048;-58
2024/02/26 10:44:57;;;;;;;20.85;10.02;;;;;;;;;;5053731;28;20029;-59
2024/02/26 10:47:23;;;;;;;23.38;12.32;;;;;;;;;;5050776;28;20083;-60
2024/02/26 10:49:50;;;;;;;17.13;9.10;;;;;;;;;;5060052;28;20030;-59
2024/02/26 10:52:18;;;;;;;22.98;10.88;;;;;;;;;;5056587;28;20045;-60
2024/02/26 10:54:47;;;;;;;22.98;9.57;;;;;;;;;;5055597;28;20037;-57
2024/02/26 10:57:13;;;;;;;20.65;9.85;;;;;;;;;;5054650;28;20033;-57
2024/02/26 10:59:39;;;;;;;16.60;8.90;;;;;;;;;;5055880;28;20025;-59
2024/02/26 11:02:05;;;;;;;23.55;11.40;;;;;;;;;;5058207;28;20274;-58
2024/02/26 11:04:31;;;;;;;18.38;8.88;;;;;;;;;;5052771;28;20030;-58
2024/02/26 11:06:57;;;;;;;21.88;10.20;;;;;;;;;;5052568;28;20036;-58
2024/02/26 11:09:23;;;;;;;17.77;9.18;;;;;;;;;;5050742;28;20056;-59
2024/02/26 11:11:48;;;;;;;20.03;10.50;;;;;;;;;;5051956;28;20029;-61
2024/02/26 11:14:14;;;;;;;23.77;11.70;;;;;;;;;;5051840;28;20286;-59
2024/02/26 11:16:40;;;;;;;19.97;10.60;;;;;;;;;;5053930;28;20029;-62
2024/02/26 11:19:07;;;;;;;21.15;9.95;;;;;;;;;;5050918;28;20022;-61
2024/02/26 11:21:40;;;;;;;;;;;;;;;;;;5052091;28;20033;-57
2024/02/26 11:24:07;;;;;;;14.20;8.13;;;;;;;;;;5051791;28;20315;-60
2024/02/26 11:26:34;;;;;;;16.85;9.27;;;;;;;;;;5050174;28;20037;-58
2024/02/26 11:28:59;;;;;;;20.73;10.32;;;;;;;;;;5051397;28;20068;-59
2024/02/26 11:31:27;;;;;;;23.17;11.43;;;;;;;;;;5050995;28;20112;-60
2024/02/26 11:33:53;;;;;;;19.77;10.77;;;;;;;;;;5051558;28;20038;-61
2024/02/26 11:36:19;;;;;;;20.92;9.68;;;;;;;;;;5049500;28;20262;-58
2024/02/26 11:38:48;;;;;;;14.60;6.65;;;;;;;;;;5050604;28;20033;-57
2024/02/26 11:41:15;;;;;;;12.70;6.67;;;;;;;;;;5050706;28;20030;-58
2024/02/26 11:43:53;;;;;;;18.77;9.73;;;;;;;;;;5050561;28;20273;-60
2024/02/26 11:46:26;;;;;;;14.93;8.70;;;;;;;;;;5049678;28;20034;-60
2024/02/26 11:48:54;;;;;;;12.73;6.93;;;;;;;;;;5051160;28;20270;-58
2024/02/26 11:51:24;;;;;;;18.30;9.57;;;;;;;;;;5049967;28;20267;-58
2024/02/26 11:53:50;;;;;;;22.23;10.60;;;;;;;;;;5050662;28;20298;-54
2024/02/26 11:56:26;;;;;;;16.60;8.63;;;;;;;;;;5050537;28;20293;-59
2024/02/26 11:59:09;;;;;;;16.87;9.77;;;;;;;;;;5050519;28;20033;-59
2024/02/26 12:01:44;;;;;;;17.92;8.25;;;;;;;;;;5050389;28;20080;-59
2024/02/26 12:04:09;;;;;;;20.10;10.20;;;;;;;;;;5049761;28;20040;-58
2024/02/26 12:07:02;;;;;;;17.80;9.20;;;;;;;;;;5049527;28;20258;-59
2024/02/26 12:09:38;;;;;;;20.70;10.33;;;;;;;;;;5048587;28;20029;-59
2024/02/26 12:12:05;;;;;;;16.60;8.25;;;;;;;;;;5050597;28;20261;-59
2024/02/26 12:14:32;;;;;;;22.63;11.70;;;;;;;;;;5048339;28;20042;-60
2024/02/26 12:16:58;;;;;;;19.33;10.20;;;;;;;;;;5050620;28;20297;-59
2024/02/26 12:19:24;;;;;;;20.92;11.50;;;;;;;;;;5048004;28;20271;-59
2024/02/26 12:21:55;;;;;;;20.10;10.03;;;;;;;;;;5050708;28;20037;-59
2024/02/26 12:24:21;;;;;;;19.43;9.87;;;;;;;;;;5050588;28;20053;-58
2024/02/26 12:26:47;;;;;;;18.58;9.77;;;;;;;;;;5055099;28;20255;-57
2024/02/26 12:29:12;;;;;;;19.67;9.90;;;;;;;;;;5052577;28;20039;-59
2024/02/26 12:31:39;;;;;;;12.60;6.97;;;;;;;;;;5052103;28;20021;-60
2024/02/26 12:34:04;;;;;;;19.50;9.80;;;;;;;;;;5053822;28;20041;-58
2024/02/26 12:36:30;;;;;;;20.50;10.48;;;;;;;;;;5053706;28;20064;-59
2024/02/26 12:38:56;;;;;;;16.97;8.83;;;;;;;;;;5051623;28;20030;-60
2024/02/26 12:41:22;;;;;;;15.63;8.27;;;;;;;;;;5051419;28;20021;-58
2024/02/26 12:43:47;;;;;;;13.10;5.20;;;;;;;;;;5046803;28;20101;-60
2024/02/26 12:46:15;;;;;;;13.90;6.37;;;;;;;;;;5048652;28;20042;-59
2024/02/26 12:48:42;;;;;;;17.10;7.90;;;;;;;;;;5048964;28;20046;-60
2024/02/26 12:51:07;;;;;;;14.55;6.15;;;;;;;;;;5048952;28;20255;-60
2024/02/26 12:53:33;;;;;;;11.33;5.80;;;;;;;;;;5048357;28;20079;-58
2024/02/26 12:55:58;;;;;;;15.27;7.40;;;;;;;;;;5053233;28;20065;-57
2024/02/26 12:58:27;;;;;;;15.80;8.37;;;;;;;;;;5054036;28;20032;-57
2024/02/26 13:00:55;;;;;;;14.10;6.03;;;;;;;;;;5053450;28;20032;-59
2024/02/26 13:03:21;;;;;;;11.85;5.22;;;;;;;;;;5052888;28;20037;-56
2024/02/26 13:05:46;;;;;;;16.05;7.10;;;;;;;;;;5051705;28;20042;-60
2024/02/26 13:08:19;;;;;;;16.23;8.55;;;;;;;;;;5052404;28;20027;-59
2024/02/26 13:10:45;;;;;;;16.63;7.75;;;;;;;;;;5052453;28;20038;-59
2024/02/26 13:13:10;;;;;;;;;;;;;;;;;;5054605;28;20061;-59
2024/02/26 13:15:37;;;;;;;14.77;6.87;;;;;;;;;;5053893;28;19920;-57
2024/02/26 13:18:15;;;;;;;10.83;6.07;;;;;;;;;;5053496;28;20262;-59
2024/02/26 13:20:41;;;;;;;11.87;6.17;;;;;;;;;;5051636;28;20017;-60
2024/02/26 13:23:07;;;;;;;15.20;8.32;;;;;;;;;;5052291;28;20298;-59
2024/02/26 13:25:33;;;;;;;14.95;5.82;;;;;;;;;;5053951;28;20061;-55
2024/02/26 13:28:15;;;;;;;12.07;5.75;;;;;;;;;;5055838;28;20029;-58
2024/02/26 13:30:41;;;;;;;16.40;8.47;;;;;;;;;;5054416;28;20033;-60
2024/02/26 13:33:07;;;;;;;12.17;6.27;;;;;;;;;;5053889;28;20314;-59
2024/02/26 13:35:34;;;;;;;11.20;5.55;;;;;;;;;;5053864;28;20351;-58
2024/02/26 13:38:00;;;;;;;12.33;5.93;;;;;;;;;;5055811;28;20029;-55
2024/02/26 13:40:26;;;;;;;15.27;7.43;;;;;;;;;;5055383;28;20331;-57
2024/02/26 13:42:52;;;;;;;15.03;6.40;;;;;;;;;;5054167;28;20022;-58
2024/02/26 13:45:18;;;;;;;10.30;5.13;;;;;;;;;;5053719;28;20029;-56
2024/02/26 13:47:44;;;;;;;15.70;7.90;;;;;;;;;;5053526;28;20267;-56
2024/02/26 13:50:10;;;;;;;;;;;;;;;;;;5055091;28;20036;-58
2024/02/26 13:52:35;;;;;;;12.35;6.35;;;;;;;;;;5052086;28;19913;-57
2024/02/26 13:55:00;;;;;;;19.77;7.50;;;;;;;;;;5049288;28;20052;-57
2024/02/26 13:57:26;;;;;;;13.83;7.57;;;;;;;;;;5052885;28;20047;-58
2024/02/26 13:59:52;;;;;;;13.40;7.15;;;;;;;;;;5051780;28;20250;-59
2024/02/26 14:02:17;;;;;;;13.63;7.67;;;;;;;;;;5052550;28;20030;-60
2024/02/26 14:04:43;;;;;;;11.23;6.15;;;;;;;;;;5052327;28;20041;-58
2024/02/26 14:07:08;;;;;;;17.90;7.43;;;;;;;;;;5055158;28;20108;-59
2024/02/26 14:09:33;;;;;;;12.50;6.57;;;;;;;;;;5058749;28;20033;-59
2024/02/26 14:12:00;;;;;;;16.60;8.10;;;;;;;;;;5053105;28;20032;-55
2024/02/26 14:14:27;;;;;;;14.07;6.50;;;;;;;;;;5057448;28;20033;-61
2024/02/26 14:16:53;;;;;;;13.53;7.43;;;;;;;;;;5053739;28;20323;-58
2024/02/26 14:19:18;;;;;;;15.07;7.77;;;;;;;;;;5050508;28;20287;-58
2024/02/26 14:21:43;;;;;;;17.63;6.90;;;;;;;;;;5051652;28;20049;-55
2024/02/26 14:24:08;;;;;;;11.90;5.93;;;;;;;;;;5051877;28;20033;-58
2024/02/26 14:26:34;;;;;;;14.80;6.30;;;;;;;;;;5051401;28;20046;-58